sensor_id;sensor_type;location;lat;lon;timestamp;P1;durP1;ratioP1;P2;durP2;ratioP2
18280;SDS011;9266;51.132;17.062;2023-12-29T00:01:53;17.17;;;13.30;;
18280;SDS011;9266;51.132;17.062;2023-12-29T00:04:20;18.73;;;12.57;;
18280;SDS011;9266;51.132;17.062;2023-12-29T00:06:47;19.53;;;13.23;;
18280;SDS011;9266;51.132;17.062;2023-12-29T00:09:14;19.30;;;13.23;;
18280;SDS011;9266;51.132;17.062;2023-12-29T00:11:41;15.87;;;11.97;;
18280;SDS011;9266;51.132;17.062;2023-12-29T00:14:08;15.23;;;11.90;;
18280;SDS011;9266;51.132;17.062;2023-12-29T00:16:36;16.53;;;11.47;;
18280;SDS011;9266;51.132;17.062;2023-12-29T00:19:03;14.97;;;12.13;;
18280;SDS011;9266;51.132;17.062;2023-12-29T00:21:30;15.93;;;11.70;;
18280;SDS011;9266;51.132;17.062;2023-12-29T00:23:57;14.27;;;11.50;;
18280;SDS011;9266;51.132;17.062;2023-12-29T00:26:24;15.83;;;12.00;;
18280;SDS011;9266;51.132;17.062;2023-12-29T00:28:51;17.43;;;12.63;;
18280;SDS011;9266;51.132;17.062;2023-12-29T00:31:18;14.27;;;11.90;;
18280;SDS011;9266;51.132;17.062;2023-12-29T00:33:46;16.50;;;12.07;;
18280;SDS011;9266;51.132;17.062;2023-12-29T00:36:17;15.70;;;12.60;;
18280;SDS011;9266;51.132;17.062;2023-12-29T00:38:44;14.83;;;11.50;;
18280;SDS011;9266;51.132;17.062;2023-12-29T00:41:11;15.67;;;12.00;;
18280;SDS011;9266;51.132;17.062;2023-12-29T00:43:38;15.13;;;11.60;;
18280;SDS011;9266;51.132;17.062;2023-12-29T00:46:05;16.50;;;12.13;;
18280;SDS011;9266;51.132;17.062;2023-12-29T00:48:33;12.77;;;10.83;;
18280;SDS011;9266;51.132;17.062;2023-12-29T00:51:01;16.00;;;11.80;;
18280;SDS011;9266;51.132;17.062;2023-12-29T00:53:29;15.63;;;11.70;;
18280;SDS011;9266;51.132;17.062;2023-12-29T00:55:57;14.37;;;11.23;;
18280;SDS011;9266;51.132;17.062;2023-12-29T00:58:23;14.50;;;11.40;;
18280;SDS011;9266;51.132;17.062;2023-12-29T01:00:50;13.27;;;11.50;;
18280;SDS011;9266;51.132;17.062;2023-12-29T01:03:17;14.37;;;11.23;;
18280;SDS011;9266;51.132;17.062;2023-12-29T01:05:45;14.57;;;11.37;;
18280;SDS011;9266;51.132;17.062;2023-12-29T01:08:13;14.33;;;11.00;;
18280;SDS011;9266;51.132;17.062;2023-12-29T01:10:40;15.63;;;11.37;;
18280;SDS011;9266;51.132;17.062;2023-12-29T01:13:07;15.73;;;11.73;;
18280;SDS011;9266;51.132;17.062;2023-12-29T01:15:34;13.90;;;11.03;;
18280;SDS011;9266;51.132;17.062;2023-12-29T01:18:01;14.93;;;11.10;;
18280;SDS011;9266;51.132;17.062;2023-12-29T01:20:28;13.73;;;10.97;;
18280;SDS011;9266;51.132;17.062;2023-12-29T01:22:55;13.03;;;10.57;;
18280;SDS011;9266;51.132;17.062;2023-12-29T01:25:23;14.83;;;11.00;;
18280;SDS011;9266;51.132;17.062;2023-12-29T01:27:50;13.23;;;10.53;;
18280;SDS011;9266;51.132;17.062;2023-12-29T01:30:17;14.23;;;11.13;;
18280;SDS011;9266;51.132;17.062;2023-12-29T01:32:44;13.60;;;10.67;;
18280;SDS011;9266;51.132;17.062;2023-12-29T01:35:11;17.10;;;11.37;;
18280;SDS011;9266;51.132;17.062;2023-12-29T01:37:38;13.80;;;11.60;;
18280;SDS011;9266;51.132;17.062;2023-12-29T01:40:05;14.37;;;10.67;;
18280;SDS011;9266;51.132;17.062;2023-12-29T01:42:34;12.83;;;10.83;;
18280;SDS011;9266;51.132;17.062;2023-12-29T01:45:01;14.70;;;11.00;;
18280;SDS011;9266;51.132;17.062;2023-12-29T01:47:28;14.10;;;11.03;;
18280;SDS011;9266;51.132;17.062;2023-12-29T01:49:55;13.03;;;10.93;;
18280;SDS011;9266;51.132;17.062;2023-12-29T01:52:22;13.70;;;11.27;;
18280;SDS011;9266;51.132;17.062;2023-12-29T01:54:50;11.83;;;9.87;;
18280;SDS011;9266;51.132;17.062;2023-12-29T01:57:19;12.90;;;10.13;;
18280;SDS011;9266;51.132;17.062;2023-12-29T01:59:48;15.97;;;10.73;;
18280;SDS011;9266;51.132;17.062;2023-12-29T02:02:15;13.60;;;10.30;;
18280;SDS011;9266;51.132;17.062;2023-12-29T02:04:43;12.73;;;9.03;;
18280;SDS011;9266;51.132;17.062;2023-12-29T02:07:11;11.87;;;9.67;;
18280;SDS011;9266;51.132;17.062;2023-12-29T02:09:38;11.23;;;9.60;;
18280;SDS011;9266;51.132;17.062;2023-12-29T02:12:06;14.47;;;9.13;;
18280;SDS011;9266;51.132;17.062;2023-12-29T02:14:33;11.93;;;9.77;;
18280;SDS011;9266;51.132;17.062;2023-12-29T02:17:04;10.43;;;8.97;;
18280;SDS011;9266;51.132;17.062;2023-12-29T02:19:37;10.53;;;8.70;;
18280;SDS011;9266;51.132;17.062;2023-12-29T02:22:06;9.57;;;8.60;;
18280;SDS011;9266;51.132;17.062;2023-12-29T02:24:33;10.30;;;8.57;;
18280;SDS011;9266;51.132;17.062;2023-12-29T02:27:05;8.93;;;7.43;;
18280;SDS011;9266;51.132;17.062;2023-12-29T02:29:36;10.80;;;8.63;;
18280;SDS011;9266;51.132;17.062;2023-12-29T02:32:06;11.10;;;8.33;;
18280;SDS011;9266;51.132;17.062;2023-12-29T02:34:37;9.03;;;8.13;;
18280;SDS011;9266;51.132;17.062;2023-12-29T02:37:06;9.27;;;7.90;;
18280;SDS011;9266;51.132;17.062;2023-12-29T02:39:35;9.03;;;7.77;;
18280;SDS011;9266;51.132;17.062;2023-12-29T02:42:04;10.50;;;8.53;;
18280;SDS011;9266;51.132;17.062;2023-12-29T02:44:31;12.07;;;8.23;;
18280;SDS011;9266;51.132;17.062;2023-12-29T02:46:58;10.70;;;8.10;;
18280;SDS011;9266;51.132;17.062;2023-12-29T02:49:26;10.83;;;9.37;;
18280;SDS011;9266;51.132;17.062;2023-12-29T02:51:53;11.93;;;8.40;;
18280;SDS011;9266;51.132;17.062;2023-12-29T02:54:20;10.40;;;8.57;;
18280;SDS011;9266;51.132;17.062;2023-12-29T02:56:46;9.13;;;8.17;;
18280;SDS011;9266;51.132;17.062;2023-12-29T02:59:15;11.60;;;8.67;;
18280;SDS011;9266;51.132;17.062;2023-12-29T03:01:42;9.50;;;8.50;;
18280;SDS011;9266;51.132;17.062;2023-12-29T03:04:08;11.03;;;8.60;;
18280;SDS011;9266;51.132;17.062;2023-12-29T03:06:35;9.50;;;8.40;;
18280;SDS011;9266;51.132;17.062;2023-12-29T03:09:02;10.47;;;8.53;;
18280;SDS011;9266;51.132;17.062;2023-12-29T03:11:29;10.30;;;8.37;;
18280;SDS011;9266;51.132;17.062;2023-12-29T03:13:57;9.80;;;8.73;;
18280;SDS011;9266;51.132;17.062;2023-12-29T03:16:25;10.33;;;8.80;;
18280;SDS011;9266;51.132;17.062;2023-12-29T03:18:52;10.47;;;8.23;;
18280;SDS011;9266;51.132;17.062;2023-12-29T03:21:19;10.27;;;8.73;;
18280;SDS011;9266;51.132;17.062;2023-12-29T03:23:46;10.77;;;9.47;;
18280;SDS011;9266;51.132;17.062;2023-12-29T03:26:12;9.93;;;8.27;;
18280;SDS011;9266;51.132;17.062;2023-12-29T03:28:39;10.00;;;8.53;;
18280;SDS011;9266;51.132;17.062;2023-12-29T03:31:06;9.50;;;7.93;;
18280;SDS011;9266;51.132;17.062;2023-12-29T03:33:34;7.80;;;7.00;;
18280;SDS011;9266;51.132;17.062;2023-12-29T03:36:01;8.70;;;7.80;;
18280;SDS011;9266;51.132;17.062;2023-12-29T03:38:29;8.27;;;7.37;;
18280;SDS011;9266;51.132;17.062;2023-12-29T03:40:57;11.37;;;7.70;;
18280;SDS011;9266;51.132;17.062;2023-12-29T03:43:24;8.40;;;7.50;;
18280;SDS011;9266;51.132;17.062;2023-12-29T03:45:51;8.77;;;7.30;;
18280;SDS011;9266;51.132;17.062;2023-12-29T03:48:17;8.23;;;7.13;;
18280;SDS011;9266;51.132;17.062;2023-12-29T03:50:46;8.37;;;7.50;;
18280;SDS011;9266;51.132;17.062;2023-12-29T03:53:13;8.27;;;7.40;;
18280;SDS011;9266;51.132;17.062;2023-12-29T03:55:40;9.97;;;8.00;;
18280;SDS011;9266;51.132;17.062;2023-12-29T03:58:07;9.70;;;8.30;;
18280;SDS011;9266;51.132;17.062;2023-12-29T04:00:34;9.40;;;8.20;;
18280;SDS011;9266;51.132;17.062;2023-12-29T04:03:01;10.83;;;8.00;;
18280;SDS011;9266;51.132;17.062;2023-12-29T04:05:29;10.10;;;8.07;;
18280;SDS011;9266;51.132;17.062;2023-12-29T04:07:57;8.83;;;7.90;;
18280;SDS011;9266;51.132;17.062;2023-12-29T04:10:24;9.33;;;7.80;;
18280;SDS011;9266;51.132;17.062;2023-12-29T04:12:51;10.87;;;7.83;;
18280;SDS011;9266;51.132;17.062;2023-12-29T04:15:18;9.70;;;7.60;;
18280;SDS011;9266;51.132;17.062;2023-12-29T04:17:44;8.17;;;7.33;;
18280;SDS011;9266;51.132;17.062;2023-12-29T04:20:11;9.70;;;7.87;;
18280;SDS011;9266;51.132;17.062;2023-12-29T04:22:38;9.13;;;7.17;;
18280;SDS011;9266;51.132;17.062;2023-12-29T04:25:07;8.23;;;7.20;;
18280;SDS011;9266;51.132;17.062;2023-12-29T04:27:34;9.87;;;7.37;;
18280;SDS011;9266;51.132;17.062;2023-12-29T04:30:01;8.17;;;7.00;;
18280;SDS011;9266;51.132;17.062;2023-12-29T04:32:29;8.67;;;7.43;;
18280;SDS011;9266;51.132;17.062;2023-12-29T04:34:56;9.57;;;7.23;;
18280;SDS011;9266;51.132;17.062;2023-12-29T04:37:22;10.30;;;7.37;;
18280;SDS011;9266;51.132;17.062;2023-12-29T04:39:49;8.13;;;7.13;;
18280;SDS011;9266;51.132;17.062;2023-12-29T04:42:18;7.60;;;6.80;;
18280;SDS011;9266;51.132;17.062;2023-12-29T04:44:45;7.50;;;6.67;;
18280;SDS011;9266;51.132;17.062;2023-12-29T04:47:12;7.33;;;6.57;;
18280;SDS011;9266;51.132;17.062;2023-12-29T04:49:39;7.97;;;6.53;;
18280;SDS011;9266;51.132;17.062;2023-12-29T04:52:06;8.20;;;6.97;;
18280;SDS011;9266;51.132;17.062;2023-12-29T04:54:33;8.60;;;6.47;;
18280;SDS011;9266;51.132;17.062;2023-12-29T04:57:00;7.80;;;7.00;;
18280;SDS011;9266;51.132;17.062;2023-12-29T04:59:28;7.47;;;6.70;;
18280;SDS011;9266;51.132;17.062;2023-12-29T05:01:55;7.70;;;6.90;;
18280;SDS011;9266;51.132;17.062;2023-12-29T05:04:22;7.57;;;6.30;;
18280;SDS011;9266;51.132;17.062;2023-12-29T05:06:49;9.23;;;6.60;;
18280;SDS011;9266;51.132;17.062;2023-12-29T05:09:15;7.77;;;6.93;;
18280;SDS011;9266;51.132;17.062;2023-12-29T05:11:42;9.43;;;6.97;;
18280;SDS011;9266;51.132;17.062;2023-12-29T05:14:09;7.47;;;6.50;;
18280;SDS011;9266;51.132;17.062;2023-12-29T05:16:37;9.47;;;6.83;;
18280;SDS011;9266;51.132;17.062;2023-12-29T05:19:04;7.97;;;6.57;;
18280;SDS011;9266;51.132;17.062;2023-12-29T05:21:31;9.90;;;6.83;;
18280;SDS011;9266;51.132;17.062;2023-12-29T05:23:58;13.33;;;7.53;;
18280;SDS011;9266;51.132;17.062;2023-12-29T05:26:25;7.57;;;6.77;;
18280;SDS011;9266;51.132;17.062;2023-12-29T05:28:52;8.17;;;6.80;;
18280;SDS011;9266;51.132;17.062;2023-12-29T05:31:19;8.57;;;6.73;;
18280;SDS011;9266;51.132;17.062;2023-12-29T05:33:47;10.50;;;7.70;;
18280;SDS011;9266;51.132;17.062;2023-12-29T05:36:14;7.93;;;6.73;;
18280;SDS011;9266;51.132;17.062;2023-12-29T05:38:43;7.73;;;6.57;;
18280;SDS011;9266;51.132;17.062;2023-12-29T05:41:12;7.87;;;7.00;;
18280;SDS011;9266;51.132;17.062;2023-12-29T05:43:40;6.90;;;6.20;;
18280;SDS011;9266;51.132;17.062;2023-12-29T05:46:08;11.40;;;6.83;;
18280;SDS011;9266;51.132;17.062;2023-12-29T05:48:36;7.23;;;6.33;;
18280;SDS011;9266;51.132;17.062;2023-12-29T05:51:07;7.40;;;6.03;;
18280;SDS011;9266;51.132;17.062;2023-12-29T05:53:35;7.00;;;6.30;;
18280;SDS011;9266;51.132;17.062;2023-12-29T05:56:02;7.53;;;6.47;;
18280;SDS011;9266;51.132;17.062;2023-12-29T05:58:29;6.57;;;5.83;;
18280;SDS011;9266;51.132;17.062;2023-12-29T06:00:56;9.47;;;7.47;;
18280;SDS011;9266;51.132;17.062;2023-12-29T06:03:24;9.43;;;7.70;;
18280;SDS011;9266;51.132;17.062;2023-12-29T06:05:50;8.93;;;7.83;;
18280;SDS011;9266;51.132;17.062;2023-12-29T06:08:19;8.27;;;6.97;;
18280;SDS011;9266;51.132;17.062;2023-12-29T06:10:46;9.53;;;7.50;;
18280;SDS011;9266;51.132;17.062;2023-12-29T06:13:13;9.23;;;6.80;;
18280;SDS011;9266;51.132;17.062;2023-12-29T06:15:40;7.43;;;6.43;;
18280;SDS011;9266;51.132;17.062;2023-12-29T06:18:07;6.87;;;6.00;;
18280;SDS011;9266;51.132;17.062;2023-12-29T06:20:34;10.43;;;6.43;;
18280;SDS011;9266;51.132;17.062;2023-12-29T06:23:01;10.67;;;6.50;;
18280;SDS011;9266;51.132;17.062;2023-12-29T06:25:29;8.33;;;6.07;;
18280;SDS011;9266;51.132;17.062;2023-12-29T06:27:56;7.23;;;6.00;;
18280;SDS011;9266;51.132;17.062;2023-12-29T06:30:23;7.47;;;5.77;;
18280;SDS011;9266;51.132;17.062;2023-12-29T06:32:50;9.67;;;5.93;;
18280;SDS011;9266;51.132;17.062;2023-12-29T06:35:17;8.93;;;6.60;;
18280;SDS011;9266;51.132;17.062;2023-12-29T06:37:44;6.17;;;5.57;;
18280;SDS011;9266;51.132;17.062;2023-12-29T06:40:11;7.73;;;5.73;;
18280;SDS011;9266;51.132;17.062;2023-12-29T06:42:40;6.07;;;5.47;;
18280;SDS011;9266;51.132;17.062;2023-12-29T06:45:07;8.20;;;6.60;;
18280;SDS011;9266;51.132;17.062;2023-12-29T06:47:34;8.23;;;6.03;;
18280;SDS011;9266;51.132;17.062;2023-12-29T06:50:01;6.43;;;5.73;;
18280;SDS011;9266;51.132;17.062;2023-12-29T06:52:29;7.53;;;6.73;;
18280;SDS011;9266;51.132;17.062;2023-12-29T06:54:59;10.23;;;6.43;;
18280;SDS011;9266;51.132;17.062;2023-12-29T06:57:26;6.47;;;5.87;;
18280;SDS011;9266;51.132;17.062;2023-12-29T06:59:54;7.97;;;5.63;;
18280;SDS011;9266;51.132;17.062;2023-12-29T07:02:22;6.40;;;5.63;;
18280;SDS011;9266;51.132;17.062;2023-12-29T07:04:49;8.13;;;6.23;;
18280;SDS011;9266;51.132;17.062;2023-12-29T07:07:15;8.17;;;5.87;;
18280;SDS011;9266;51.132;17.062;2023-12-29T07:09:42;8.37;;;5.77;;
18280;SDS011;9266;51.132;17.062;2023-12-29T07:12:09;9.20;;;5.77;;
18280;SDS011;9266;51.132;17.062;2023-12-29T07:14:36;7.03;;;6.00;;
18280;SDS011;9266;51.132;17.062;2023-12-29T07:17:05;8.50;;;6.80;;
18280;SDS011;9266;51.132;17.062;2023-12-29T07:19:32;7.17;;;6.33;;
18280;SDS011;9266;51.132;17.062;2023-12-29T07:22:02;8.03;;;5.90;;
18280;SDS011;9266;51.132;17.062;2023-12-29T07:24:30;6.00;;;5.03;;
18280;SDS011;9266;51.132;17.062;2023-12-29T07:26:58;7.37;;;6.17;;
18280;SDS011;9266;51.132;17.062;2023-12-29T07:29:25;7.83;;;5.30;;
18280;SDS011;9266;51.132;17.062;2023-12-29T07:31:52;6.23;;;5.60;;
18280;SDS011;9266;51.132;17.062;2023-12-29T07:34:20;7.37;;;5.60;;
18280;SDS011;9266;51.132;17.062;2023-12-29T07:36:47;6.23;;;5.33;;
18280;SDS011;9266;51.132;17.062;2023-12-29T07:39:14;8.87;;;5.97;;
18280;SDS011;9266;51.132;17.062;2023-12-29T07:41:41;7.57;;;6.60;;
18280;SDS011;9266;51.132;17.062;2023-12-29T07:44:09;6.97;;;6.27;;
18280;SDS011;9266;51.132;17.062;2023-12-29T07:46:37;7.10;;;6.20;;
18280;SDS011;9266;51.132;17.062;2023-12-29T07:49:04;7.07;;;5.77;;
18280;SDS011;9266;51.132;17.062;2023-12-29T07:51:32;7.60;;;5.83;;
18280;SDS011;9266;51.132;17.062;2023-12-29T07:53:59;8.23;;;6.03;;
18280;SDS011;9266;51.132;17.062;2023-12-29T07:56:26;7.10;;;6.40;;
18280;SDS011;9266;51.132;17.062;2023-12-29T07:58:53;6.47;;;5.83;;
18280;SDS011;9266;51.132;17.062;2023-12-29T08:01:20;8.53;;;6.17;;
18280;SDS011;9266;51.132;17.062;2023-12-29T08:03:47;8.43;;;6.03;;
18280;SDS011;9266;51.132;17.062;2023-12-29T08:06:14;6.73;;;5.57;;
18280;SDS011;9266;51.132;17.062;2023-12-29T08:08:42;6.23;;;5.40;;
18280;SDS011;9266;51.132;17.062;2023-12-29T08:11:12;7.27;;;5.47;;
18280;SDS011;9266;51.132;17.062;2023-12-29T08:13:40;7.40;;;5.83;;
18280;SDS011;9266;51.132;17.062;2023-12-29T08:16:07;7.33;;;5.70;;
18280;SDS011;9266;51.132;17.062;2023-12-29T08:18:34;6.03;;;5.07;;
18280;SDS011;9266;51.132;17.062;2023-12-29T08:21:01;7.27;;;5.57;;
18280;SDS011;9266;51.132;17.062;2023-12-29T08:23:28;6.23;;;5.50;;
18280;SDS011;9266;51.132;17.062;2023-12-29T08:25:57;6.80;;;5.87;;
18280;SDS011;9266;51.132;17.062;2023-12-29T08:28:24;7.77;;;5.80;;
18280;SDS011;9266;51.132;17.062;2023-12-29T08:30:51;9.67;;;7.33;;
18280;SDS011;9266;51.132;17.062;2023-12-29T08:33:18;6.40;;;5.67;;
18280;SDS011;9266;51.132;17.062;2023-12-29T08:35:45;7.87;;;5.13;;
18280;SDS011;9266;51.132;17.062;2023-12-29T08:38:12;5.70;;;4.67;;
18280;SDS011;9266;51.132;17.062;2023-12-29T08:40:39;7.00;;;4.97;;
18280;SDS011;9266;51.132;17.062;2023-12-29T08:43:08;4.77;;;4.17;;
18280;SDS011;9266;51.132;17.062;2023-12-29T08:45:35;5.30;;;4.53;;
18280;SDS011;9266;51.132;17.062;2023-12-29T08:48:03;6.67;;;4.40;;
18280;SDS011;9266;51.132;17.062;2023-12-29T08:50:31;6.90;;;4.80;;
18280;SDS011;9266;51.132;17.062;2023-12-29T08:52:57;7.53;;;5.50;;
18280;SDS011;9266;51.132;17.062;2023-12-29T08:55:24;8.40;;;4.90;;
18280;SDS011;9266;51.132;17.062;2023-12-29T08:57:51;4.50;;;4.00;;
18280;SDS011;9266;51.132;17.062;2023-12-29T09:00:20;6.17;;;4.60;;
18280;SDS011;9266;51.132;17.062;2023-12-29T09:02:47;5.07;;;3.93;;
18280;SDS011;9266;51.132;17.062;2023-12-29T09:05:14;5.20;;;4.10;;
18280;SDS011;9266;51.132;17.062;2023-12-29T09:07:41;6.93;;;4.73;;
18280;SDS011;9266;51.132;17.062;2023-12-29T09:10:08;9.43;;;4.57;;
18280;SDS011;9266;51.132;17.062;2023-12-29T09:12:37;6.20;;;4.03;;
18280;SDS011;9266;51.132;17.062;2023-12-29T09:15:05;6.00;;;3.93;;
18280;SDS011;9266;51.132;17.062;2023-12-29T09:17:34;7.20;;;4.17;;
18280;SDS011;9266;51.132;17.062;2023-12-29T09:20:01;7.03;;;4.93;;
18280;SDS011;9266;51.132;17.062;2023-12-29T09:22:29;5.10;;;4.10;;
18280;SDS011;9266;51.132;17.062;2023-12-29T09:24:56;7.23;;;4.33;;
18280;SDS011;9266;51.132;17.062;2023-12-29T09:27:22;7.00;;;4.20;;
18280;SDS011;9266;51.132;17.062;2023-12-29T09:29:49;6.70;;;4.30;;
18280;SDS011;9266;51.132;17.062;2023-12-29T09:32:16;9.70;;;4.20;;
18280;SDS011;9266;51.132;17.062;2023-12-29T09:34:45;4.37;;;3.70;;
18280;SDS011;9266;51.132;17.062;2023-12-29T09:37:12;5.87;;;3.80;;
18280;SDS011;9266;51.132;17.062;2023-12-29T09:39:39;7.20;;;4.23;;
18280;SDS011;9266;51.132;17.062;2023-12-29T09:42:06;4.67;;;3.97;;
18280;SDS011;9266;51.132;17.062;2023-12-29T09:44:35;8.07;;;4.43;;
18280;SDS011;9266;51.132;17.062;2023-12-29T09:47:03;5.50;;;3.70;;
18280;SDS011;9266;51.132;17.062;2023-12-29T09:49:30;8.53;;;4.20;;
18280;SDS011;9266;51.132;17.062;2023-12-29T09:52:05;9.50;;;4.97;;
18280;SDS011;9266;51.132;17.062;2023-12-29T09:54:33;8.30;;;4.40;;
18280;SDS011;9266;51.132;17.062;2023-12-29T09:57:02;7.47;;;4.10;;
18280;SDS011;9266;51.132;17.062;2023-12-29T09:59:30;6.87;;;3.97;;
18280;SDS011;9266;51.132;17.062;2023-12-29T10:02:00;6.63;;;4.20;;
18280;SDS011;9266;51.132;17.062;2023-12-29T10:04:29;5.47;;;3.93;;
18280;SDS011;9266;51.132;17.062;2023-12-29T10:06:56;5.07;;;3.70;;
18280;SDS011;9266;51.132;17.062;2023-12-29T10:09:30;8.20;;;3.63;;
18280;SDS011;9266;51.132;17.062;2023-12-29T10:11:58;5.93;;;3.60;;
18280;SDS011;9266;51.132;17.062;2023-12-29T10:14:30;8.27;;;4.20;;
18280;SDS011;9266;51.132;17.062;2023-12-29T10:17:03;5.53;;;3.70;;
18280;SDS011;9266;51.132;17.062;2023-12-29T10:19:37;6.33;;;3.20;;
18280;SDS011;9266;51.132;17.062;2023-12-29T10:22:07;7.00;;;3.80;;
18280;SDS011;9266;51.132;17.062;2023-12-29T10:24:42;6.50;;;4.43;;
18280;SDS011;9266;51.132;17.062;2023-12-29T10:27:11;11.33;;;8.17;;
18280;SDS011;9266;51.132;17.062;2023-12-29T10:29:38;6.80;;;4.37;;
18280;SDS011;9266;51.132;17.062;2023-12-29T10:32:05;5.83;;;3.80;;
18280;SDS011;9266;51.132;17.062;2023-12-29T10:34:32;4.17;;;3.43;;
18280;SDS011;9266;51.132;17.062;2023-12-29T10:36:59;4.50;;;3.50;;
18280;SDS011;9266;51.132;17.062;2023-12-29T10:39:29;5.73;;;3.70;;
18280;SDS011;9266;51.132;17.062;2023-12-29T10:42:04;6.10;;;3.97;;
18280;SDS011;9266;51.132;17.062;2023-12-29T10:44:33;5.40;;;3.30;;
18280;SDS011;9266;51.132;17.062;2023-12-29T10:47:07;3.80;;;3.27;;
18280;SDS011;9266;51.132;17.062;2023-12-29T10:49:34;5.73;;;3.23;;
18280;SDS011;9266;51.132;17.062;2023-12-29T10:52:10;5.67;;;3.20;;
18280;SDS011;9266;51.132;17.062;2023-12-29T10:54:38;4.57;;;3.63;;
18280;SDS011;9266;51.132;17.062;2023-12-29T10:57:07;5.37;;;4.57;;
18280;SDS011;9266;51.132;17.062;2023-12-29T10:59:36;4.00;;;3.40;;
18280;SDS011;9266;51.132;17.062;2023-12-29T11:02:03;5.83;;;3.30;;
18280;SDS011;9266;51.132;17.062;2023-12-29T11:04:30;7.37;;;3.93;;
18280;SDS011;9266;51.132;17.062;2023-12-29T11:06:57;6.93;;;3.47;;
18280;SDS011;9266;51.132;17.062;2023-12-29T11:09:27;5.17;;;3.40;;
18280;SDS011;9266;51.132;17.062;2023-12-29T11:11:55;7.73;;;4.10;;
18280;SDS011;9266;51.132;17.062;2023-12-29T11:14:25;4.87;;;3.40;;
18280;SDS011;9266;51.132;17.062;2023-12-29T11:16:53;6.33;;;3.60;;
18280;SDS011;9266;51.132;17.062;2023-12-29T11:19:21;4.93;;;3.77;;
18280;SDS011;9266;51.132;17.062;2023-12-29T11:21:48;8.37;;;5.27;;
18280;SDS011;9266;51.132;17.062;2023-12-29T11:24:19;9.00;;;4.87;;
18280;SDS011;9266;51.132;17.062;2023-12-29T11:26:46;6.77;;;4.00;;
18280;SDS011;9266;51.132;17.062;2023-12-29T11:29:14;7.67;;;4.27;;
18280;SDS011;9266;51.132;17.062;2023-12-29T11:31:44;6.57;;;3.90;;
18280;SDS011;9266;51.132;17.062;2023-12-29T11:34:15;5.30;;;3.83;;
18280;SDS011;9266;51.132;17.062;2023-12-29T11:36:46;8.10;;;4.23;;
18280;SDS011;9266;51.132;17.062;2023-12-29T11:39:15;6.37;;;4.40;;
18280;SDS011;9266;51.132;17.062;2023-12-29T11:41:47;8.13;;;4.53;;
18280;SDS011;9266;51.132;17.062;2023-12-29T11:44:24;5.67;;;4.37;;
18280;SDS011;9266;51.132;17.062;2023-12-29T11:46:53;9.10;;;4.40;;
18280;SDS011;9266;51.132;17.062;2023-12-29T11:49:20;5.37;;;3.43;;
18280;SDS011;9266;51.132;17.062;2023-12-29T11:51:47;7.70;;;4.77;;
18280;SDS011;9266;51.132;17.062;2023-12-29T11:54:21;10.70;;;4.70;;
18280;SDS011;9266;51.132;17.062;2023-12-29T11:56:48;6.90;;;4.97;;
18280;SDS011;9266;51.132;17.062;2023-12-29T11:59:16;7.60;;;4.50;;
18280;SDS011;9266;51.132;17.062;2023-12-29T12:01:45;6.23;;;4.60;;
18280;SDS011;9266;51.132;17.062;2023-12-29T12:07:07;8.13;;;3.97;;
18280;SDS011;9266;51.132;17.062;2023-12-29T12:09:35;6.13;;;4.53;;
18280;SDS011;9266;51.132;17.062;2023-12-29T12:12:03;6.97;;;4.73;;
18280;SDS011;9266;51.132;17.062;2023-12-29T12:14:46;7.07;;;4.13;;
18280;SDS011;9266;51.132;17.062;2023-12-29T12:17:27;9.63;;;4.83;;
18280;SDS011;9266;51.132;17.062;2023-12-29T12:19:57;7.97;;;4.20;;
18280;SDS011;9266;51.132;17.062;2023-12-29T12:22:28;6.50;;;5.63;;
18280;SDS011;9266;51.132;17.062;2023-12-29T12:24:57;9.13;;;4.93;;
18280;SDS011;9266;51.132;17.062;2023-12-29T12:27:24;7.10;;;4.30;;
18280;SDS011;9266;51.132;17.062;2023-12-29T12:29:53;7.43;;;4.60;;
18280;SDS011;9266;51.132;17.062;2023-12-29T12:32:22;7.80;;;4.40;;
18280;SDS011;9266;51.132;17.062;2023-12-29T12:34:49;5.50;;;4.47;;
18280;SDS011;9266;51.132;17.062;2023-12-29T12:37:21;7.93;;;4.97;;
18280;SDS011;9266;51.132;17.062;2023-12-29T12:39:49;7.63;;;4.80;;
18280;SDS011;9266;51.132;17.062;2023-12-29T12:42:16;7.17;;;4.73;;
18280;SDS011;9266;51.132;17.062;2023-12-29T12:44:47;10.20;;;5.30;;
18280;SDS011;9266;51.132;17.062;2023-12-29T12:47:22;9.97;;;4.93;;
18280;SDS011;9266;51.132;17.062;2023-12-29T12:49:53;7.17;;;4.80;;
18280;SDS011;9266;51.132;17.062;2023-12-29T12:52:21;7.87;;;4.80;;
18280;SDS011;9266;51.132;17.062;2023-12-29T12:54:48;7.17;;;5.20;;
18280;SDS011;9266;51.132;17.062;2023-12-29T12:57:19;6.83;;;4.93;;
18280;SDS011;9266;51.132;17.062;2023-12-29T12:59:47;8.17;;;5.47;;
18280;SDS011;9266;51.132;17.062;2023-12-29T13:02:15;7.77;;;4.73;;
18280;SDS011;9266;51.132;17.062;2023-12-29T13:04:44;6.63;;;4.93;;
18280;SDS011;9266;51.132;17.062;2023-12-29T13:07:14;8.53;;;5.33;;
18280;SDS011;9266;51.132;17.062;2023-12-29T13:09:43;10.20;;;5.20;;
18280;SDS011;9266;51.132;17.062;2023-12-29T13:12:11;7.57;;;4.97;;
18280;SDS011;9266;51.132;17.062;2023-12-29T13:14:41;10.40;;;5.27;;
18280;SDS011;9266;51.132;17.062;2023-12-29T13:17:08;7.97;;;5.27;;
18280;SDS011;9266;51.132;17.062;2023-12-29T13:19:36;11.33;;;6.33;;
18280;SDS011;9266;51.132;17.062;2023-12-29T13:22:06;12.10;;;5.80;;
18280;SDS011;9266;51.132;17.062;2023-12-29T13:24:33;7.53;;;4.83;;
18280;SDS011;9266;51.132;17.062;2023-12-29T13:27:04;6.33;;;4.87;;
18280;SDS011;9266;51.132;17.062;2023-12-29T13:29:32;10.40;;;5.60;;
18280;SDS011;9266;51.132;17.062;2023-12-29T13:32:02;6.67;;;4.50;;
18280;SDS011;9266;51.132;17.062;2023-12-29T13:34:35;8.97;;;4.70;;
18280;SDS011;9266;51.132;17.062;2023-12-29T13:37:06;11.47;;;8.33;;
18280;SDS011;9266;51.132;17.062;2023-12-29T13:39:41;8.57;;;5.47;;
18280;SDS011;9266;51.132;17.062;2023-12-29T13:42:14;9.33;;;5.60;;
18280;SDS011;9266;51.132;17.062;2023-12-29T13:44:44;9.63;;;4.73;;
18280;SDS011;9266;51.132;17.062;2023-12-29T13:47:12;8.10;;;4.73;;
18280;SDS011;9266;51.132;17.062;2023-12-29T13:49:40;5.93;;;4.30;;
18280;SDS011;9266;51.132;17.062;2023-12-29T13:52:07;7.37;;;4.53;;
18280;SDS011;9266;51.132;17.062;2023-12-29T13:54:40;7.90;;;5.73;;
18280;SDS011;9266;51.132;17.062;2023-12-29T13:57:08;9.90;;;5.57;;
18280;SDS011;9266;51.132;17.062;2023-12-29T13:59:36;7.33;;;5.40;;
18280;SDS011;9266;51.132;17.062;2023-12-29T14:02:15;6.73;;;4.97;;
18280;SDS011;9266;51.132;17.062;2023-12-29T14:04:50;10.63;;;5.57;;
18280;SDS011;9266;51.132;17.062;2023-12-29T14:07:18;10.03;;;5.40;;
18280;SDS011;9266;51.132;17.062;2023-12-29T14:09:53;11.90;;;6.27;;
18280;SDS011;9266;51.132;17.062;2023-12-29T14:12:23;9.17;;;5.00;;
18280;SDS011;9266;51.132;17.062;2023-12-29T14:14:53;8.93;;;5.33;;
18280;SDS011;9266;51.132;17.062;2023-12-29T14:17:20;8.73;;;5.17;;
18280;SDS011;9266;51.132;17.062;2023-12-29T14:19:47;7.27;;;5.00;;
18280;SDS011;9266;51.132;17.062;2023-12-29T14:22:20;8.90;;;6.23;;
18280;SDS011;9266;51.132;17.062;2023-12-29T14:24:58;9.27;;;5.40;;
18280;SDS011;9266;51.132;17.062;2023-12-29T14:27:25;9.27;;;6.03;;
18280;SDS011;9266;51.132;17.062;2023-12-29T14:29:54;10.60;;;5.47;;
18280;SDS011;9266;51.132;17.062;2023-12-29T14:32:21;8.93;;;5.10;;
18280;SDS011;9266;51.132;17.062;2023-12-29T14:34:49;9.10;;;5.30;;
18280;SDS011;9266;51.132;17.062;2023-12-29T14:37:18;7.10;;;5.03;;
18280;SDS011;9266;51.132;17.062;2023-12-29T14:39:47;8.30;;;5.23;;
18280;SDS011;9266;51.132;17.062;2023-12-29T14:42:14;8.03;;;4.63;;
18280;SDS011;9266;51.132;17.062;2023-12-29T14:44:42;8.53;;;5.13;;
18280;SDS011;9266;51.132;17.062;2023-12-29T14:47:13;7.60;;;4.83;;
18280;SDS011;9266;51.132;17.062;2023-12-29T14:49:40;9.00;;;5.20;;
18280;SDS011;9266;51.132;17.062;2023-12-29T14:52:07;7.60;;;4.63;;